Time;durP1;ratioP1;P1;durP2;ratioP2;P2;SDS_P1;SDS_P2;PMS_P1;PMS_P2;Temp;Humidity;BMP_temperature;BMP_pressure;BME280_temperature;BME280_humidity;BME280_pressure;Samples;Min_cycle;Max_cycle;Signal;HPM_P1;HPM_P2
2021/05/14 00:00:29;;;;;;;4.40;2.30;;;17.30;95.50;;;;;;5012602;28;20505;-51
2021/05/14 00:02:56;;;;;;;2.50;2.30;;;17.30;94.30;;;;;;5012796;28;20029;-49
2021/05/14 00:05:24;;;;;;;2.10;2.00;;;17.40;93.70;;;;;;5013812;28;20402;-52
2021/05/14 00:07:51;;;;;;;2.40;2.20;;;17.30;94.40;;;;;;5013664;28;20033;-50
2021/05/14 00:10:21;;;;;;;2.20;2.10;;;17.40;94.40;;;;;;5013815;28;20386;-52
2021/05/14 00:12:49;;;;;;;2.30;2.20;;;17.30;93.30;;;;;;5013723;28;20029;-51
2021/05/14 00:15:17;;;;;;;2.55;1.92;;;17.40;93.60;;;;;;5013624;28;20089;-51
2021/05/14 00:17:45;;;;;;;4.07;2.58;;;17.50;93.50;;;;;;5013605;28;20040;-51
2021/05/14 00:20:17;;;;;;;2.70;2.50;;;17.60;93.20;;;;;;5012762;28;20046;-52
2021/05/14 00:22:45;;;;;;;2.80;2.70;;;17.70;92.80;;;;;;5013642;28;20026;-56
2021/05/14 00:25:13;;;;;;;2.50;2.40;;;17.70;93.30;;;;;;5013592;28;20033;-50
2021/05/14 00:27:41;;;;;;;2.30;2.20;;;17.70;92.40;;;;;;5013471;28;20483;-52
2021/05/14 00:30:10;;;;;;;3.10;2.90;;;17.70;92.90;;;;;;5013571;28;20022;-55
2021/05/14 00:32:38;;;;;;;3.15;2.90;;;17.80;93.20;;;;;;5012468;28;20026;-49
2021/05/14 00:35:06;;;;;;;2.47;2.28;;;17.90;92.60;;;;;;5013433;28;20029;-53
2021/05/14 00:37:35;;;;;;;2.60;2.50;;;18.00;92.80;;;;;;5013455;28;20026;-49
2021/05/14 00:40:03;;;;;;;2.80;2.60;;;18.20;93.40;;;;;;5013433;28;20022;-47
2021/05/14 00:42:30;;;;;;;3.13;2.30;;;18.10;92.70;;;;;;5013315;28;20394;-50
2021/05/14 00:44:58;;;;;;;2.60;2.40;;;18.10;91.90;;;;;;5013225;28;20398;-52
2021/05/14 00:47:25;;;;;;;3.80;2.38;;;18.20;91.50;;;;;;5013267;28;20125;-51
2021/05/14 00:49:52;;;;;;;2.70;2.50;;;18.10;92.20;;;;;;5013308;28;20109;-51
2021/05/14 00:52:21;;;;;;;2.50;2.40;;;17.90;91.70;;;;;;5013253;28;20025;-53
2021/05/14 00:54:50;;;;;;;3.70;2.30;;;17.90;90.80;;;;;;5013301;28;20388;-48
2021/05/14 00:57:18;;;;;;;3.58;2.30;;;17.90;90.50;;;;;;5013160;28;20029;-51
2021/05/14 00:59:47;;;;;;;2.75;2.50;;;18.00;90.10;;;;;;5013170;28;20425;-50
2021/05/14 01:02:16;;;;;;;2.67;2.50;;;17.90;90.30;;;;;;5013074;28;20406;-55
2021/05/14 01:04:43;;;;;;;2.85;2.67;;;17.90;90.80;;;;;;5013167;28;20030;-52
2021/05/14 01:07:14;;;;;;;2.97;2.80;;;18.00;90.80;;;;;;5013090;28;20070;-50
2021/05/14 01:09:43;;;;;;;3.25;2.50;;;18.10;90.50;;;;;;5013169;28;20022;-48
2021/05/14 01:12:12;;;;;;;4.03;2.78;;;18.20;89.90;;;;;;5013053;28;20032;-52
2021/05/14 01:14:39;;;;;;;2.50;2.38;;;18.20;90.00;;;;;;5013462;28;20378;-50
2021/05/14 01:17:07;;;;;;;2.30;2.10;;;18.40;89.70;;;;;;5013086;28;20161;-47
2021/05/14 01:19:34;;;;;;;2.78;2.58;;;18.50;89.30;;;;;;5012848;28;20041;-50
2021/05/14 01:22:03;;;;;;;2.50;2.40;;;18.20;87.20;;;;;;5013117;28;20105;-50
2021/05/14 01:24:34;;;;;;;2.92;2.50;;;18.20;86.70;;;;;;5012910;28;20032;-49
2021/05/14 01:27:03;;;;;;;2.60;2.50;;;18.20;85.80;;;;;;5012787;28;20478;-51
2021/05/14 01:29:30;;;;;;;2.60;2.40;;;18.40;86.60;;;;;;5013225;28;20470;-53
2021/05/14 01:31:58;;;;;;;2.58;2.40;;;18.40;85.50;;;;;;5015333;28;20105;-52
2021/05/14 01:34:25;;;;;;;4.38;2.40;;;18.80;85.50;;;;;;5015244;28;20025;-54
2021/05/14 01:36:52;;;;;;;2.42;2.33;;;18.70;83.80;;;;;;5015361;28;20482;-50
2021/05/14 01:39:24;;;;;;;4.57;2.38;;;18.50;84.50;;;;;;5016450;28;20026;-53
2021/05/14 01:41:54;;;;;;;2.42;2.33;;;18.50;82.00;;;;;;5016604;28;20042;-50
2021/05/14 01:44:22;;;;;;;3.20;2.97;;;18.50;81.40;;;;;;5016345;28;20026;-55
2021/05/14 01:46:50;;;;;;;2.83;2.60;;;18.50;80.10;;;;;;5016079;28;20034;-52
2021/05/14 01:49:17;;;;;;;2.80;2.60;;;18.60;81.30;;;;;;5016177;28;20506;-47
2021/05/14 01:51:45;;;;;;;2.35;2.20;;;18.60;80.60;;;;;;5016416;28;20030;-51
2021/05/14 01:54:13;;;;;;;2.63;2.30;;;18.40;80.10;;;;;;5015984;28;20029;-50
2021/05/14 01:56:43;;;;;;;3.15;2.80;;;18.80;79.60;;;;;;5015805;28;20026;-52
2021/05/14 01:59:11;;;;;;;2.50;2.30;;;18.50;82.30;;;;;;5015930;28;20033;-49
2021/05/14 02:01:38;;;;;;;4.45;2.70;;;18.50;77.70;;;;;;5016136;28;20372;-51
2021/05/14 02:04:06;;;;;;;2.53;2.33;;;18.60;81.40;;;;;;5016060;28;20105;-53
2021/05/14 02:06:34;;;;;;;3.13;2.45;;;18.80;81.80;;;;;;5015915;28;20041;-49
2021/05/14 02:09:05;;;;;;;2.97;2.40;;;18.70;80.80;;;;;;5015999;28;20018;-51
2021/05/14 02:11:34;;;;;;;2.42;2.30;;;18.60;79.80;;;;;;5015894;28;20084;-52
2021/05/14 02:14:01;;;;;;;2.50;2.30;;;18.70;79.50;;;;;;5016034;28;20397;-51
2021/05/14 02:16:29;;;;;;;2.83;2.40;;;18.90;80.80;;;;;;5015939;28;20017;-53
2021/05/14 02:18:56;;;;;;;3.20;2.88;;;18.70;78.40;;;;;;5015771;28;20430;-50
2021/05/14 02:21:23;;;;;;;3.97;2.70;;;18.90;79.20;;;;;;5015688;28;20088;-54
2021/05/14 02:23:51;;;;;;;2.28;2.17;;;18.80;78.30;;;;;;5015626;28;20030;-54
2021/05/14 02:26:18;;;;;;;3.05;2.75;;;18.80;80.00;;;;;;5015663;28;20022;-51
2021/05/14 02:28:45;;;;;;;2.60;2.47;;;18.80;79.10;;;;;;5014359;28;20022;-50
2021/05/14 02:31:13;;;;;;;2.88;2.60;;;18.60;77.60;;;;;;5015762;28;20021;-53
2021/05/14 02:33:40;;;;;;;2.60;2.35;;;18.60;77.90;;;;;;5015613;28;20097;-52
2021/05/14 02:36:08;;;;;;;3.00;2.80;;;18.80;79.60;;;;;;5015591;28;20018;-51
2021/05/14 02:38:35;;;;;;;3.30;3.08;;;18.90;79.60;;;;;;5015576;28;20372;-52
2021/05/14 02:41:05;;;;;;;2.83;2.70;;;18.80;80.00;;;;;;5015372;28;20057;-53
2021/05/14 02:43:33;;;;;;;3.42;3.10;;;19.10;79.10;;;;;;5014985;28;20036;-51
2021/05/14 02:46:01;;;;;;;2.85;2.70;;;19.20;79.00;;;;;;5015087;28;20595;-53
2021/05/14 02:48:28;;;;;;;2.80;2.67;;;19.20;77.40;;;;;;5015359;28;20049;-49
2021/05/14 02:50:56;;;;;;;3.15;2.50;;;19.00;78.10;;;;;;5014160;28;20014;-53
2021/05/14 02:53:23;;;;;;;2.60;2.40;;;19.10;77.10;;;;;;5015121;28;20053;-49
2021/05/14 02:55:50;;;;;;;3.08;2.88;;;19.20;78.90;;;;;;5015227;28;20121;-56
2021/05/14 02:58:18;;;;;;;3.33;2.80;;;19.10;77.60;;;;;;5015121;28;20026;-51
2021/05/14 03:00:45;;;;;;;3.83;3.53;;;19.20;78.70;;;;;;5015247;28;20034;-51
2021/05/14 03:03:13;;;;;;;2.40;2.30;;;19.00;77.20;;;;;;5014887;28;20453;-50
2021/05/14 03:05:40;;;;;;;2.70;2.50;;;19.10;78.70;;;;;;5015000;28;20025;-49
2021/05/14 03:08:07;;;;;;;2.50;2.30;;;19.30;78.30;;;;;;5014901;28;20049;-52
2021/05/14 03:10:35;;;;;;;2.40;2.30;;;19.30;79.00;;;;;;5014746;28;20057;-51
2021/05/14 03:13:02;;;;;;;2.97;2.65;;;19.60;79.90;;;;;;5014862;28;20394;-50
2021/05/14 03:15:29;;;;;;;2.63;2.40;;;19.70;78.20;;;;;;5014879;28;20022;-53
2021/05/14 03:17:57;;;;;;;2.50;2.30;;;19.70;78.10;;;;;;5014836;28;20033;-51
2021/05/14 03:20:24;;;;;;;2.30;2.20;;;19.60;79.00;;;;;;5014443;28;20050;-55
2021/05/14 03:22:51;;;;;;;3.63;2.50;;;19.60;77.60;;;;;;5014777;28;20030;-55
2021/05/14 03:25:19;;;;;;;2.85;2.40;;;19.80;80.20;;;;;;5013386;28;20033;-56
2021/05/14 03:27:46;;;;;;;2.60;2.40;;;19.70;77.80;;;;;;5014532;28;20026;-56
2021/05/14 03:30:14;;;;;;;2.40;2.30;;;19.80;79.50;;;;;;5014479;28;20493;-55
2021/05/14 03:32:43;;;;;;;2.50;2.30;;;19.90;80.30;;;;;;5014606;28;20025;-55
2021/05/14 03:35:11;;;;;;;2.10;2.00;;;19.90;80.40;;;;;;5014324;28;20026;-56
2021/05/14 03:37:39;;;;;;;2.38;2.20;;;19.80;78.00;;;;;;5014428;28;20022;-55
2021/05/14 03:42:53;;;;;;;2.67;1.95;;;19.30;79.40;;;;;;5014355;28;20088;-51
2021/05/14 03:45:20;;;;;;;2.60;2.50;;;19.20;80.60;;;;;;5014345;28;20021;-51
2021/05/14 03:47:48;;;;;;;3.75;2.60;;;19.20;80.00;;;;;;5014237;28;20378;-52
2021/05/14 03:50:16;;;;;;;2.75;2.60;;;19.00;80.50;;;;;;5014248;28;20022;-56
2021/05/14 03:52:45;;;;;;;;;;;19.10;81.20;;;;;;5014319;28;20125;-55
2021/05/14 03:55:13;;;;;;;2.58;2.38;;;19.30;83.20;;;;;;5013765;28;19933;-54
2021/05/14 03:57:40;;;;;;;2.40;2.30;;;19.30;79.90;;;;;;5014087;28;20025;-53
2021/05/14 04:00:08;;;;;;;2.50;2.30;;;19.20;79.30;;;;;;5014181;28;20052;-51
2021/05/14 04:02:35;;;;;;;2.60;2.45;;;19.00;79.40;;;;;;5014063;28;20048;-51
2021/05/14 04:05:03;;;;;;;2.60;2.40;;;19.00;79.60;;;;;;5014018;28;20044;-52
2021/05/14 04:07:31;;;;;;;2.63;2.28;;;19.00;80.50;;;;;;5014025;28;20022;-54
2021/05/14 04:15:16;;;;;;;2.65;2.45;;;18.90;79.60;;;;;;4983126;28;20038;-50
2021/05/14 04:17:43;;;;;;;2.55;2.33;;;19.00;80.40;;;;;;5013658;28;20029;-52
2021/05/14 04:20:10;;;;;;;2.25;2.05;;;19.10;81.00;;;;;;5012358;28;20050;-50
2021/05/14 04:22:38;;;;;;;2.20;2.10;;;19.10;80.60;;;;;;5013625;28;20087;-47
2021/05/14 04:25:06;;;;;;;2.67;2.10;;;19.00;80.30;;;;;;5013499;28;20026;-48
2021/05/14 04:27:33;;;;;;;2.40;2.25;;;19.10;82.00;;;;;;5013449;28;20033;-50
2021/05/14 04:30:00;;;;;;;2.58;2.47;;;19.10;81.20;;;;;;5013610;28;20387;-49
2021/05/14 04:32:27;;;;;;;2.67;2.47;;;19.10;81.00;;;;;;5013562;28;20029;-50
2021/05/14 04:34:55;;;;;;;3.20;2.90;;;19.20;82.30;;;;;;5013503;28;20072;-50
2021/05/14 04:37:22;;;;;;;3.22;2.92;;;18.90;81.10;;;;;;5013414;28;20026;-50
2021/05/14 04:39:49;;;;;;;3.10;2.80;;;19.00;80.40;;;;;;5013407;28;20021;-50
2021/05/14 04:42:17;;;;;;;3.15;3.00;;;19.00;81.60;;;;;;5013436;28;20038;-53
2021/05/14 04:44:44;;;;;;;2.50;2.40;;;19.00;82.90;;;;;;5013447;28;20022;-50
2021/05/14 04:47:12;;;;;;;2.90;2.70;;;19.00;82.40;;;;;;5013364;28;20056;-48
2021/05/14 04:49:40;;;;;;;2.80;2.70;;;19.00;81.90;;;;;;5013132;28;20022;-55
2021/05/14 04:52:25;;;;;;;2.97;2.40;;;19.10;83.50;;;;;;5013163;28;20057;-55
2021/05/14 04:54:53;;;;;;;2.75;2.55;;;19.10;81.60;;;;;;5013311;28;20029;-56
2021/05/14 04:57:20;;;;;;;2.92;2.72;;;19.00;80.70;;;;;;5013350;28;20026;-53
2021/05/14 04:59:48;;;;;;;2.60;2.40;;;18.90;80.10;;;;;;5013280;28;20107;-55
2021/05/14 05:02:15;;;;;;;2.55;2.35;;;18.90;81.00;;;;;;5013217;28;20335;-54
2021/05/14 05:04:43;;;;;;;2.75;2.55;;;18.80;79.60;;;;;;5012469;28;20041;-53
2021/05/14 05:07:11;;;;;;;2.70;2.55;;;18.90;82.50;;;;;;5017069;28;20113;-54
2021/05/14 05:09:39;;;;;;;3.15;2.85;;;18.90;81.40;;;;;;5017072;28;20030;-55
2021/05/14 05:12:06;;;;;;;2.40;2.20;;;18.70;78.90;;;;;;5017240;28;20037;-57
2021/05/14 05:14:34;;;;;;;3.00;2.90;;;18.60;79.50;;;;;;5017060;28;20105;-55
2021/05/14 05:17:01;;;;;;;3.40;3.20;;;18.70;79.30;;;;;;5016879;28;20037;-56
2021/05/14 05:19:28;;;;;;;3.20;3.00;;;18.70;79.50;;;;;;5016996;28;20054;-56
2021/05/14 05:21:56;;;;;;;3.20;2.90;;;18.60;79.50;;;;;;5016933;28;20052;-57
2021/05/14 05:24:23;;;;;;;3.40;3.20;;;18.60;81.50;;;;;;5016872;28;20026;-56
2021/05/14 05:26:50;;;;;;;3.22;2.80;;;18.70;82.50;;;;;;5016859;28;20053;-55
2021/05/14 05:29:18;;;;;;;3.20;2.80;;;18.60;79.50;;;;;;5016841;28;20101;-56
2021/05/14 05:31:45;;;;;;;2.63;2.50;;;18.50;79.70;;;;;;5016749;28;20018;-56
2021/05/14 05:34:12;;;;;;;2.70;2.50;;;18.50;80.20;;;;;;5016836;28;20115;-58
2021/05/14 05:36:40;;;;;;;3.53;2.45;;;18.40;80.10;;;;;;5016606;28;20022;-58
2021/05/14 05:39:07;;;;;;;3.15;2.20;;;18.30;80.40;;;;;;5016408;28;20022;-57
2021/05/14 05:41:34;;;;;;;2.95;2.70;;;18.30;79.90;;;;;;5016522;28;20029;-57
2021/05/14 05:44:02;;;;;;;3.10;2.30;;;18.30;80.50;;;;;;5016407;28;20021;-58
2021/05/14 05:46:29;;;;;;;3.00;2.80;;;18.30;80.10;;;;;;5015975;28;20383;-57
2021/05/14 05:48:56;;;;;;;2.80;2.50;;;18.20;80.60;;;;;;5016260;28;20385;-58
2021/05/14 05:51:24;;;;;;;2.50;2.30;;;18.20;80.20;;;;;;5016292;28;20033;-58
2021/05/14 05:53:51;;;;;;;3.58;2.80;;;18.10;80.60;;;;;;5016355;28;20403;-57
2021/05/14 05:56:19;;;;;;;2.63;2.47;;;18.10;82.00;;;;;;5016242;28;20014;-57
2021/05/14 05:58:46;;;;;;;3.00;2.70;;;18.10;82.60;;;;;;5016158;28;20022;-56
2021/05/14 06:01:13;;;;;;;2.95;2.75;;;18.00;81.60;;;;;;5016173;28;20018;-58
2021/05/14 06:03:41;;;;;;;3.35;3.15;;;17.90;83.10;;;;;;5015937;28;20076;-56
2021/05/14 06:06:08;;;;;;;3.60;3.30;;;18.00;82.60;;;;;;5015894;28;20108;-55
2021/05/14 06:08:36;;;;;;;3.20;2.90;;;17.90;81.80;;;;;;5014699;28;20025;-57
2021/05/14 06:11:04;;;;;;;3.80;2.80;;;17.90;83.10;;;;;;5015942;28;20470;-56
2021/05/14 06:13:33;;;;;;;3.08;2.88;;;17.80;82.10;;;;;;5016324;28;20414;-56
2021/05/14 06:16:02;;;;;;;3.33;3.03;;;17.70;82.20;;;;;;5015477;28;20030;-56
2021/05/14 06:18:37;;;;;;;4.40;2.75;;;17.70;81.60;;;;;;5015851;28;20526;-56
2021/05/14 06:21:06;;;;;;;2.80;2.60;;;17.60;81.60;;;;;;5015531;28;20054;-54
2021/05/14 06:23:34;;;;;;;3.75;2.53;;;17.60;82.10;;;;;;5015689;28;20034;-57
2021/05/14 06:26:01;;;;;;;2.95;2.70;;;17.50;82.40;;;;;;5015687;28;20068;-56
2021/05/14 06:28:29;;;;;;;3.13;2.80;;;17.40;82.70;;;;;;5015609;28;20413;-54
2021/05/14 06:30:56;;;;;;;3.80;3.50;;;17.30;83.20;;;;;;5015774;28;20018;-57
2021/05/14 06:33:23;;;;;;;3.20;2.92;;;17.20;83.40;;;;;;5015528;28;20022;-56
2021/05/14 06:35:51;;;;;;;3.92;2.88;;;17.10;84.10;;;;;;5015539;28;20033;-57
2021/05/14 06:38:18;;;;;;;3.10;2.80;;;17.00;83.90;;;;;;5015471;28;20053;-55
2021/05/14 06:40:45;;;;;;;3.05;2.78;;;16.90;85.10;;;;;;5015354;28;20029;-56
2021/05/14 06:43:13;;;;;;;4.38;3.50;;;16.80;85.10;;;;;;5015320;28;20108;-56
2021/05/14 06:45:40;;;;;;;3.88;3.38;;;16.80;84.30;;;;;;5015243;28;20032;-54
2021/05/14 06:48:09;;;;;;;3.60;2.92;;;16.70;85.70;;;;;;5015208;28;20491;-53
2021/05/14 06:50:37;;;;;;;3.38;2.92;;;16.60;86.00;;;;;;5015279;28;20048;-57
2021/05/14 06:53:05;;;;;;;4.25;2.90;;;16.50;86.10;;;;;;5013963;28;20026;-56
2021/05/14 06:55:34;;;;;;;3.20;2.90;;;16.50;86.00;;;;;;5015021;28;20501;-56
2021/05/14 06:58:03;;;;;;;3.03;2.83;;;16.40;86.30;;;;;;5015123;28;20030;-56
2021/05/14 07:00:32;;;;;;;3.17;2.97;;;16.30;86.90;;;;;;5015046;28;20038;-56
2021/05/14 07:03:00;;;;;;;3.25;3.00;;;16.20;86.50;;;;;;5014853;28;20033;-56
2021/05/14 07:05:27;;;;;;;2.80;2.70;;;16.20;88.40;;;;;;5014912;28;20387;-54
2021/05/14 07:07:54;;;;;;;3.28;2.92;;;16.20;87.70;;;;;;5014808;28;20018;-55
2021/05/14 07:10:23;;;;;;;3.67;3.38;;;16.10;89.80;;;;;;5013544;28;20026;-58
2021/05/14 07:12:51;;;;;;;3.20;3.00;;;16.00;89.00;;;;;;5014703;28;20077;-55
2021/05/14 07:15:18;;;;;;;3.80;3.00;;;15.90;89.60;;;;;;5014742;28;20033;-56
2021/05/14 07:17:46;;;;;;;4.40;2.97;;;15.90;89.70;;;;;;5013310;28;20022;-55
2021/05/14 07:20:14;;;;;;;3.05;2.80;;;15.80;89.40;;;;;;5014296;28;20125;-56
2021/05/14 07:22:41;;;;;;;3.13;2.92;;;15.80;89.10;;;;;;5014444;28;20576;-55
2021/05/14 07:25:09;;;;;;;4.60;3.58;;;15.80;89.10;;;;;;5014515;28;20057;-56
2021/05/14 07:27:36;;;;;;;4.80;3.55;;;15.80;89.90;;;;;;5014286;28;20108;-57
2021/05/14 07:30:04;;;;;;;2.80;2.60;;;15.60;90.90;;;;;;5014783;28;20058;-55
2021/05/14 07:32:32;;;;;;;3.72;2.97;;;15.40;90.50;;;;;;5013097;28;20028;-57
2021/05/14 07:34:59;;;;;;;3.50;2.90;;;15.40;90.40;;;;;;5014238;28;20060;-54
2021/05/14 07:37:26;;;;;;;2.90;2.50;;;15.50;90.40;;;;;;5014395;28;20034;-54
2021/05/14 07:39:54;;;;;;;3.40;3.10;;;15.40;90.60;;;;;;5014139;28;20368;-56
2021/05/14 07:42:22;;;;;;;5.13;3.00;;;15.40;90.90;;;;;;5012820;28;20053;-56
2021/05/14 07:44:49;;;;;;;3.28;2.97;;;15.40;90.70;;;;;;5014312;28;20083;-50
2021/05/14 07:47:20;;;;;;;3.15;2.83;;;15.40;90.80;;;;;;5013889;28;20038;-52
2021/05/14 07:49:47;;;;;;;3.00;2.70;;;15.30;90.60;;;;;;5013956;28;20479;-52
2021/05/14 07:52:14;;;;;;;5.80;3.40;;;15.30;90.70;;;;;;5014085;28;20025;-56
2021/05/14 07:54:42;;;;;;;3.03;2.60;;;15.30;91.30;;;;;;5014058;28;20482;-58
2021/05/14 07:57:10;;;;;;;2.72;2.30;;;15.10;91.30;;;;;;5013954;28;20497;-56
2021/05/14 07:59:37;;;;;;;3.28;3.00;;;15.10;91.20;;;;;;5014037;28;20487;-58
2021/05/14 08:02:04;;;;;;;3.28;3.03;;;15.10;91.30;;;;;;5014046;28;20033;-60
2021/05/14 08:04:32;;;;;;;4.10;2.63;;;15.00;91.70;;;;;;5014014;28;20030;-56
2021/05/14 08:06:59;;;;;;;3.05;2.70;;;14.90;92.00;;;;;;5014212;28;20481;-59
2021/05/14 08:09:27;;;;;;;2.80;2.70;;;14.90;91.60;;;;;;5013902;28;20471;-57
2021/05/14 08:11:54;;;;;;;4.10;2.58;;;14.90;91.40;;;;;;5013951;28;20046;-58
2021/05/14 08:14:22;;;;;;;3.20;2.92;;;14.90;91.80;;;;;;5014018;28;20026;-58
2021/05/14 08:16:54;;;;;;;3.25;2.97;;;14.80;92.10;;;;;;5013814;28;20382;-60
2021/05/14 08:19:21;;;;;;;2.60;2.40;;;14.70;91.80;;;;;;5013542;28;20394;-60
2021/05/14 08:21:49;;;;;;;3.03;2.53;;;14.70;91.50;;;;;;5013794;28;20028;-60
2021/05/14 08:24:17;;;;;;;3.65;2.65;;;14.70;91.60;;;;;;5013777;28;20034;-59
2021/05/14 08:26:44;;;;;;;3.70;2.65;;;14.80;91.60;;;;;;5013689;28;20028;-60
2021/05/14 08:32:14;;;;;;;3.22;2.83;;;14.70;91.80;;;;;;5012009;28;20052;-58
2021/05/14 08:34:42;;;;;;;4.90;2.78;;;14.60;91.50;;;;;;5013608;28;20026;-57
2021/05/14 08:37:09;;;;;;;2.67;2.38;;;14.70;91.50;;;;;;5013723;28;20056;-58
2021/05/14 08:42:58;;;;;;;4.40;2.33;;;14.50;92.30;;;;;;5013643;28;20117;-57
2021/05/14 08:45:26;;;;;;;2.53;2.22;;;14.40;91.70;;;;;;5013365;28;20022;-56
2021/05/14 08:48:16;;;;;;;2.60;2.40;;;14.40;91.80;;;;;;5013186;28;20432;-58
2021/05/14 08:57:29;;;;;;;3.50;3.20;;;14.40;92.00;;;;;;4977184;28;20074;-58
2021/05/14 08:59:56;;;;;;;3.38;3.05;;;14.40;92.10;;;;;;5012030;28;20091;-54
2021/05/14 09:03:06;;;;;;;;;;;;;;;;;;;;;
2021/05/14 09:15:47;;;;;;;3.38;2.70;;;14.20;92.80;;;;;;4972059;28;20034;-57
2021/05/14 09:18:25;;;;;;;3.67;3.10;;;14.10;92.50;;;;;;5000748;28;20042;-57
2021/05/14 09:28:50;;;;;;;4.65;2.97;;;13.90;93.90;;;;;;5010955;28;20151;-59
2021/05/14 09:31:19;;;;;;;4.80;3.50;;;13.90;93.40;;;;;;4993285;28;20035;-58
2021/05/14 09:33:59;;;;;;;3.70;3.40;;;13.90;93.10;;;;;;4993302;28;20054;-56
2021/05/14 09:36:35;;;;;;;3.92;3.35;;;13.90;93.20;;;;;;4975767;28;20031;-58
2021/05/14 09:39:07;;;;;;;4.30;3.90;;;13.90;93.20;;;;;;4993229;28;20103;-54
2021/05/14 09:41:46;;;;;;;5.03;3.90;;;13.90;93.30;;;;;;4993316;28;20029;-57
2021/05/14 09:55:18;;;;;;;5.05;3.95;;;13.80;93.50;;;;;;4997054;28;20033;-57
2021/05/14 09:57:50;;;;;;;3.80;3.20;;;13.80;93.90;;;;;;4996661;28;20478;-54
2021/05/14 10:00:27;;;;;;;3.63;3.42;;;13.80;93.60;;;;;;4996505;28;20026;-54
2021/05/14 10:03:04;;;;;;;4.10;3.67;;;13.80;93.20;;;;;;4996503;28;20034;-58
2021/05/14 10:05:48;;;;;;;3.90;3.60;;;13.80;93.10;;;;;;4996441;28;20030;-58
2021/05/14 10:08:23;;;;;;;6.50;3.40;;;13.80;93.10;;;;;;4995329;28;20081;-58
2021/05/14 10:10:54;;;;;;;5.20;3.63;;;13.70;93.40;;;;;;4996458;28;20057;-57
2021/05/14 10:13:25;;;;;;;3.70;3.50;;;13.70;93.60;;;;;;4996581;28;20042;-58
2021/05/14 10:15:53;;;;;;;4.07;3.67;;;13.60;93.80;;;;;;4996528;28;20042;-57
2021/05/14 10:18:22;;;;;;;4.07;3.65;;;13.40;94.20;;;;;;4996746;28;20487;-58
2021/05/14 10:20:54;;;;;;;4.07;3.30;;;13.50;93.60;;;;;;4996200;28;20395;-54
2021/05/14 10:23:22;;;;;;;4.03;3.40;;;13.60;93.50;;;;;;4996507;28;20033;-55
2021/05/14 10:25:50;;;;;;;4.82;3.70;;;13.60;93.50;;;;;;4996267;28;20056;-58
2021/05/14 10:28:26;;;;;;;4.80;3.80;;;13.60;93.50;;;;;;4995924;28;20467;-54
2021/05/14 10:31:07;;;;;;;3.90;3.60;;;13.60;93.50;;;;;;4995879;28;20047;-55
2021/05/14 10:33:41;;;;;;;5.70;3.75;;;13.60;93.60;;;;;;4996050;28;20487;-56
2021/05/14 10:36:32;;;;;;;4.38;3.33;;;13.50;94.00;;;;;;4996049;28;20076;-57
2021/05/14 10:39:49;;;;;;;4.25;3.08;;;13.40;94.10;;;;;;4978651;28;20019;-57
2021/05/14 10:42:38;;;;;;;4.70;3.28;;;13.40;94.20;;;;;;4995947;28;20414;-57
2021/05/14 10:45:05;;;;;;;3.47;3.25;;;13.30;94.30;;;;;;4995896;28;20069;-57
2021/05/14 10:47:42;;;;;;;5.22;4.00;;;13.30;94.20;;;;;;4995725;28;20049;-53
2021/05/14 10:50:38;;;;;;;5.50;3.10;;;13.30;94.30;;;;;;4995887;28;20050;-54
2021/05/14 10:53:26;;;;;;;3.85;2.80;;;13.30;94.40;;;;;;4995611;28;20490;-56
2021/05/14 10:55:55;;;;;;;4.15;2.92;;;13.20;94.40;;;;;;4995611;28;20526;-53
2021/05/14 10:58:42;;;;;;;4.05;3.30;;;13.20;94.70;;;;;;4995995;28;20089;-56
2021/05/14 11:01:30;;;;;;;4.47;3.50;;;13.20;94.40;;;;;;4995511;28;20018;-54
2021/05/14 11:04:05;;;;;;;4.30;3.13;;;13.20;94.60;;;;;;4977770;28;20019;-56
2021/05/14 11:06:48;;;;;;;4.53;3.72;;;13.10;94.80;;;;;;4995407;28;20034;-54
2021/05/14 11:09:16;;;;;;;6.93;3.30;;;13.10;94.90;;;;;;4995159;28;20110;-54
2021/05/14 11:12:10;;;;;;;4.85;3.58;;;13.10;94.70;;;;;;4995308;28;20022;-56
2021/05/14 11:14:46;;;;;;;3.55;3.15;;;13.20;94.60;;;;;;4993033;28;20037;-55
2021/05/14 11:17:17;;;;;;;4.60;3.67;;;13.10;94.80;;;;;;4995363;28;20427;-58
2021/05/14 11:19:55;;;;;;;5.22;3.60;;;13.10;95.20;;;;;;4995105;28;20472;-55
2021/05/14 11:22:34;;;;;;;4.43;3.50;;;13.10;94.60;;;;;;4995241;28;20514;-54
2021/05/14 11:25:13;;;;;;;4.20;3.50;;;13.10;94.70;;;;;;4995165;28;20102;-58
2021/05/14 11:27:51;;;;;;;5.30;3.55;;;13.10;95.10;;;;;;4994947;28;20085;-57
2021/05/14 11:30:19;;;;;;;5.93;3.58;;;13.10;94.80;;;;;;5008627;28;20057;-55
2021/05/14 11:32:54;;;;;;;3.80;3.50;;;13.10;95.20;;;;;;5014534;28;20045;-58
2021/05/14 11:35:26;;;;;;;4.28;3.67;;;13.10;95.00;;;;;;5014425;28;20022;-55
2021/05/14 11:38:00;;;;;;;3.83;3.42;;;13.10;94.90;;;;;;5014455;28;20109;-53
2021/05/14 11:40:33;;;;;;;5.53;3.60;;;13.10;94.90;;;;;;5014519;28;20080;-54
2021/05/14 11:43:12;;;;;;;3.70;3.40;;;13.00;95.20;;;;;;5014485;28;20034;-55
2021/05/14 11:45:47;;;;;;;4.50;3.65;;;13.00;95.10;;;;;;5014132;28;20030;-56
2021/05/14 11:48:23;;;;;;;4.43;4.03;;;12.90;95.00;;;;;;5014223;28;20026;-53
2021/05/14 11:50:57;;;;;;;9.90;4.57;;;12.90;95.20;;;;;;5013963;28;20025;-54
2021/05/14 11:53:25;;;;;;;4.60;4.28;;;12.90;95.60;;;;;;5014015;28;20029;-52
2021/05/14 11:55:54;;;;;;;4.10;3.72;;;12.80;95.70;;;;;;5013846;28;20026;-54
2021/05/14 11:58:25;;;;;;;4.35;3.88;;;12.70;95.60;;;;;;5013984;28;20026;-57
2021/05/14 12:00:57;;;;;;;5.10;4.55;;;12.60;95.80;;;;;;4996212;28;20037;-57
2021/05/14 12:03:25;;;;;;;5.55;4.25;;;12.70;96.10;;;;;;5013822;28;20068;-54
2021/05/14 12:05:55;;;;;;;6.55;3.72;;;12.60;95.90;;;;;;5013872;28;20097;-59
2021/05/14 12:08:26;;;;;;;4.63;3.90;;;12.60;96.10;;;;;;5013976;28;20158;-57
2021/05/14 12:11:03;;;;;;;5.00;4.00;;;12.40;96.80;;;;;;5013823;28;20018;-54
2021/05/14 12:13:35;;;;;;;3.83;3.53;;;12.30;96.30;;;;;;5013615;28;20135;-57
2021/05/14 12:16:07;;;;;;;3.90;3.60;;;12.20;96.40;;;;;;5012757;28;20367;-57
2021/05/14 12:18:44;;;;;;;4.75;4.38;;;12.00;97.90;;;;;;5013571;28;20474;-55
2021/05/14 12:21:30;;;;;;;4.90;4.40;;;11.90;97.40;;;;;;5013432;28;20557;-53
2021/05/14 12:24:00;;;;;;;4.80;4.40;;;11.80;98.30;;;;;;5013590;28;20029;-57
2021/05/14 12:26:31;;;;;;;5.00;4.47;;;11.70;98.00;;;;;;5013524;28;20449;-58
2021/05/14 12:28:59;;;;;;;5.07;4.55;;;11.70;97.70;;;;;;5013352;28;20046;-58
2021/05/14 12:31:31;;;;;;;5.93;4.90;;;11.70;97.60;;;;;;5013531;28;20029;-57
2021/05/14 12:34:02;;;;;;;5.60;4.90;;;11.60;97.50;;;;;;5013046;28;20014;-57
2021/05/14 12:36:34;;;;;;;6.65;5.20;;;11.60;98.30;;;;;;5013566;28;20036;-56
2021/05/14 12:39:08;;;;;;;5.60;5.13;;;11.50;98.90;;;;;;5013480;28;20018;-55
2021/05/14 12:41:39;;;;;;;5.57;5.07;;;11.50;99.20;;;;;;5013353;28;20022;-54
2021/05/14 12:44:19;;;;;;;5.70;4.45;;;11.40;99.60;;;;;;5013301;28;20018;-54
2021/05/14 12:46:58;;;;;;;4.97;4.53;;;11.40;98.80;;;;;;5013054;28;20119;-54
2021/05/14 12:49:27;;;;;;;6.03;4.07;;;11.40;98.80;;;;;;5013367;28;20026;-56
2021/05/14 12:52:24;;;;;;;5.13;4.28;;;11.50;98.30;;;;;;5013187;28;20375;-52
2021/05/14 12:55:15;;;;;;;5.55;3.85;;;11.60;98.10;;;;;;5012529;28;20034;-56
2021/05/14 12:58:02;;;;;;;3.60;3.40;;;11.50;98.00;;;;;;5013074;28;20112;-54
2021/05/14 13:00:39;;;;;;;3.60;3.30;;;11.60;97.90;;;;;;5013403;28;20037;-52
2021/05/14 13:03:10;;;;;;;4.95;4.00;;;11.60;97.40;;;;;;5013272;28;20026;-54
2021/05/14 13:05:47;;;;;;;4.30;4.00;;;11.70;98.00;;;;;;5013005;28;20371;-54
2021/05/14 13:08:21;;;;;;;4.60;4.22;;;11.50;98.40;;;;;;5013035;28;20152;-56
2021/05/14 13:10:50;;;;;;;4.13;3.70;;;11.40;98.40;;;;;;4995424;28;20479;-58
2021/05/14 13:13:23;;;;;;;4.30;3.90;;;11.50;98.20;;;;;;5012789;28;20026;-54
2021/05/14 13:15:53;;;;;;;3.90;3.60;;;11.50;98.20;;;;;;5012917;28;20021;-52
2021/05/14 13:18:31;;;;;;;4.28;3.88;;;11.40;98.20;;;;;;5012683;28;20026;-51
2021/05/14 13:20:59;;;;;;;5.88;3.55;;;11.30;98.70;;;;;;5012577;28;20119;-51
2021/05/14 13:23:27;;;;;;;4.32;3.35;;;11.30;98.20;;;;;;5012694;28;20050;-52
2021/05/14 13:25:54;;;;;;;7.15;4.15;;;11.30;99.30;;;;;;5013536;28;20033;-53
2021/05/14 13:28:23;;;;;;;3.60;3.30;;;11.30;98.70;;;;;;5016752;28;20054;-51
2021/05/14 13:30:51;;;;;;;4.00;3.70;;;11.30;98.50;;;;;;5016524;28;20048;-54
2021/05/14 13:33:20;;;;;;;4.38;3.20;;;11.20;99.70;;;;;;5016594;28;20029;-55
2021/05/14 13:35:47;;;;;;;5.32;3.20;;;11.20;99.00;;;;;;5016775;28;20030;-52
2021/05/14 13:38:14;;;;;;;3.97;3.53;;;11.20;99.30;;;;;;5016542;28;20418;-55
2021/05/14 13:40:42;;;;;;;3.90;3.20;;;11.20;99.10;;;;;;4998825;28;20026;-55
2021/05/14 13:43:10;;;;;;;4.80;3.40;;;11.20;98.80;;;;;;5016321;28;20033;-52
2021/05/14 13:45:37;;;;;;;3.50;3.20;;;11.20;99.10;;;;;;5016478;28;20030;-52
2021/05/14 13:48:05;;;;;;;4.20;3.90;;;11.10;99.50;;;;;;5016247;28;20034;-52
2021/05/14 13:50:32;;;;;;;4.22;3.83;;;11.10;99.70;;;;;;5016368;28;20080;-55
2021/05/14 13:52:59;;;;;;;5.00;4.00;;;11.10;99.90;;;;;;5016455;28;20423;-52